createdAt,value
2019-05-02T00:01:46.346Z,9.05
2019-05-02T00:04:20.070Z,7.97
2019-05-02T00:06:50.442Z,9.00
2019-05-02T00:09:22.383Z,8.43
2019-05-02T00:11:58.873Z,9.40
2019-05-02T00:14:26.186Z,9.18
2019-05-02T00:16:56.654Z,9.13
2019-05-02T00:19:27.480Z,9.45
2019-05-02T00:21:57.847Z,9.88
2019-05-02T00:24:33.873Z,9.13
2019-05-02T00:27:03.688Z,8.80
2019-05-02T00:29:34.201Z,9.58
2019-05-02T00:32:04.978Z,9.80
2019-05-02T00:34:35.420Z,8.70
2019-05-02T00:37:05.982Z,8.38
2019-05-02T00:39:36.418Z,8.13
2019-05-02T00:42:12.711Z,8.98
2019-05-02T00:44:42.075Z,8.60
2019-05-02T00:47:24.786Z,8.03
2019-05-02T00:49:55.568Z,8.70
2019-05-02T00:52:25.926Z,8.63
2019-05-02T00:54:58.716Z,8.80
2019-05-02T00:57:28.345Z,8.90
2019-05-02T00:59:58.780Z,9.43
2019-05-02T01:02:35.946Z,9.73
2019-05-02T01:05:07.087Z,9.53
2019-05-02T01:07:37.644Z,9.70
2019-05-02T01:10:08.167Z,9.08
2019-05-02T01:12:39.864Z,10.40
2019-05-02T01:15:11.710Z,10.72
2019-05-02T01:17:42.226Z,10.08
2019-05-02T01:20:12.762Z,9.90
2019-05-02T01:22:47.158Z,9.93
2019-05-02T01:25:16.919Z,9.93
2019-05-02T01:27:54.841Z,9.45
2019-05-02T01:30:43.880Z,11.50
2019-05-02T01:33:16.479Z,11.25
2019-05-02T01:35:50.954Z,11.08
2019-05-02T01:38:31.582Z,11.28
2019-05-02T01:40:58.670Z,12.03
2019-05-02T01:43:30.924Z,11.38
2019-05-02T01:48:32.016Z,9.78
2019-05-02T01:51:04.560Z,11.15
2019-05-02T01:53:35.728Z,10.72
2019-05-02T01:56:06.505Z,11.30
2019-05-02T01:58:36.888Z,10.85
2019-05-02T02:01:07.430Z,10.78
2019-05-02T02:03:40.573Z,10.85
2019-05-02T02:06:10.145Z,11.18
2019-05-02T02:08:40.926Z,11.45
2019-05-02T02:11:11.359Z,11.08
2019-05-02T02:13:42.418Z,10.88
2019-05-02T02:16:12.864Z,11.38
2019-05-02T02:18:44.806Z,11.08
2019-05-02T02:21:19.965Z,10.53
2019-05-02T02:23:53.283Z,10.50
2019-05-02T02:26:25.201Z,11.20
2019-05-02T02:28:55.654Z,11.35
2019-05-02T02:31:26.082Z,10.60
2019-05-02T02:33:56.500Z,10.90
2019-05-02T02:36:31.338Z,11.08
2019-05-02T02:38:58.937Z,11.93
2019-05-02T02:41:29.314Z,11.73
2019-05-02T02:44:04.278Z,11.25
2019-05-02T02:46:37.739Z,11.53
2019-05-02T02:49:14.062Z,12.43
2019-05-02T02:51:40.406Z,11.45
2019-05-02T02:54:10.968Z,11.90
2019-05-02T02:56:42.706Z,12.18
2019-05-02T02:59:19.349Z,12.90
2019-05-02T03:01:45.581Z,13.05
2019-05-02T03:04:15.999Z,12.93
2019-05-02T03:06:47.188Z,13.50
2019-05-02T03:09:20.352Z,13.03
2019-05-02T03:12:07.071Z,14.00
2019-05-02T03:14:40.997Z,14.93
2019-05-02T03:17:11.274Z,15.13
2019-05-02T03:19:41.676Z,15.28
2019-05-02T03:22:12.131Z,16.35
2019-05-02T03:24:43.951Z,14.95
2019-05-02T03:27:15.351Z,16.90
2019-05-02T03:29:45.731Z,15.68
2019-05-02T03:32:32.164Z,14.07
2019-05-02T03:34:53.396Z,16.50
2019-05-02T03:37:20.668Z,14.87
2019-05-02T03:39:57.226Z,14.33
2019-05-02T03:42:23.200Z,15.35
2019-05-02T03:44:56.200Z,15.93
2019-05-02T03:47:26.666Z,15.83
2019-05-02T03:49:57.228Z,16.62
2019-05-02T03:52:27.671Z,18.70
2019-05-02T03:54:58.454Z,16.00
2019-05-02T03:57:33.144Z,15.40
2019-05-02T04:00:00.884Z,15.38
2019-05-02T04:02:32.826Z,15.85
2019-05-02T04:05:05.652Z,15.72
2019-05-02T04:07:40.399Z,14.95
2019-05-02T04:12:41.420Z,15.28
2019-05-02T04:15:11.996Z,14.93
2019-05-02T04:17:43.115Z,16.15
2019-05-02T04:20:13.686Z,15.20
2019-05-02T04:22:48.951Z,14.33
2019-05-02T04:25:16.881Z,13.90
2019-05-02T04:27:47.541Z,14.65
2019-05-02T04:30:18.048Z,16.40
2019-05-02T04:32:49.864Z,14.25
2019-05-02T04:35:20.682Z,14.03
2019-05-02T04:37:51.155Z,13.72
2019-05-02T04:40:21.631Z,14.13
2019-05-02T04:43:02.070Z,15.50
2019-05-02T04:45:35.858Z,12.88
2019-05-02T04:48:03.873Z,13.95
2019-05-02T04:50:30.684Z,13.75
2019-05-02T04:53:02.148Z,13.60
2019-05-02T04:55:33.635Z,13.48
2019-05-02T04:58:04.378Z,14.00
2019-05-02T05:00:34.854Z,13.38
2019-05-02T05:03:07.209Z,13.65
2019-05-02T05:05:40.162Z,14.63
2019-05-02T05:08:09.461Z,13.62
2019-05-02T05:10:41.384Z,13.58
2019-05-02T05:13:12.228Z,13.05
2019-05-02T05:15:48.734Z,13.50
2019-05-02T05:18:17.659Z,13.95
2019-05-02T05:20:52.904Z,13.83
2019-05-02T05:23:21.724Z,14.53
2019-05-02T05:26:03.530Z,14.13
2019-05-02T05:28:28.613Z,14.18
2019-05-02T05:30:58.979Z,13.40
2019-05-02T05:33:29.418Z,13.93
2019-05-02T05:35:59.857Z,13.88
2019-05-02T05:38:32.617Z,12.93
2019-05-02T05:41:03.084Z,11.73
2019-05-02T05:43:34.290Z,11.55
2019-05-02T05:46:12.354Z,12.15
2019-05-02T05:48:40.673Z,11.48
2019-05-02T05:51:11.795Z,11.57
2019-05-02T05:53:40.789Z,11.25
2019-05-02T05:56:11.239Z,11.73
2019-05-02T05:58:50.381Z,11.25
2019-05-02T06:01:13.707Z,13.95
2019-05-02T06:03:45.076Z,15.63
2019-05-02T06:06:22.853Z,13.22
2019-05-02T06:08:49.120Z,13.65
2019-05-02T06:11:21.722Z,13.18
2019-05-02T06:13:52.028Z,13.03
2019-05-02T06:16:22.499Z,11.85
2019-05-02T06:18:52.868Z,14.93
2019-05-02T06:21:26.693Z,24.32
2019-05-02T06:23:57.118Z,22.17
2019-05-02T06:26:27.527Z,13.35
2019-05-02T06:28:57.890Z,12.73
2019-05-02T06:31:28.422Z,12.82
2019-05-02T06:34:02.075Z,12.37
2019-05-02T06:36:31.965Z,12.68
2019-05-02T06:39:02.878Z,12.63
2019-05-02T06:41:33.915Z,12.18
2019-05-02T06:44:05.591Z,13.25
2019-05-02T06:46:36.039Z,12.60
2019-05-02T06:49:06.434Z,13.08
2019-05-02T06:51:36.852Z,12.37
2019-05-02T06:54:07.293Z,12.47
2019-05-02T06:56:37.682Z,12.18
2019-05-02T06:59:08.124Z,12.35
2019-05-02T07:01:38.503Z,11.70
2019-05-02T07:04:08.930Z,12.98
2019-05-02T07:06:50.209Z,12.70
2019-05-02T07:09:11.700Z,13.40
2019-05-02T07:11:42.293Z,13.22
2019-05-02T07:14:13.912Z,13.58
2019-05-02T07:17:05.527Z,13.75
2019-05-02T07:19:36.434Z,14.15
2019-05-02T07:22:06.806Z,13.45
2019-05-02T07:24:37.262Z,14.23
2019-05-02T07:27:07.838Z,13.68
2019-05-02T07:29:38.271Z,12.78
2019-05-02T07:32:08.758Z,12.70
2019-05-02T07:34:44.153Z,12.70
2019-05-02T07:37:15.649Z,12.25
2019-05-02T07:39:46.102Z,13.35
2019-05-02T07:42:16.509Z,12.35
2019-05-02T07:44:46.894Z,11.55
2019-05-02T07:47:17.323Z,12.75
2019-05-02T07:49:47.696Z,12.10
2019-05-02T07:52:18.137Z,11.50
2019-05-02T07:54:48.574Z,11.95
2019-05-02T07:57:19.075Z,11.57
2019-05-02T07:59:49.989Z,11.63
2019-05-02T08:02:25.201Z,11.43
2019-05-02T08:04:52.655Z,12.28
2019-05-02T08:07:25.885Z,11.12
2019-05-02T08:09:55.082Z,11.50
2019-05-02T08:12:25.531Z,11.80
2019-05-02T08:14:55.966Z,11.30
2019-05-02T08:17:26.390Z,10.90
2019-05-02T08:19:56.827Z,11.25
2019-05-02T08:22:27.202Z,10.75
2019-05-02T08:24:57.634Z,11.18
2019-05-02T08:27:34.778Z,12.60
2019-05-02T08:30:04.338Z,11.50
2019-05-02T08:32:34.671Z,12.85
2019-05-02T08:35:06.914Z,11.05
2019-05-02T08:37:40.976Z,11.45
2019-05-02T08:40:12.011Z,12.05
2019-05-02T08:42:42.652Z,12.53
2019-05-02T08:45:13.270Z,13.20
2019-05-02T08:47:43.743Z,12.60
2019-05-02T08:50:14.306Z,12.47
2019-05-02T08:52:44.682Z,12.98
2019-05-02T08:55:15.141Z,12.30
2019-05-02T08:57:45.627Z,14.40
2019-05-02T09:00:18.525Z,14.15
2019-05-02T09:02:49.615Z,14.50
2019-05-02T09:05:23.569Z,13.48
2019-05-02T09:08:02.328Z,13.18
2019-05-02T09:10:42.100Z,12.82
2019-05-02T09:13:25.934Z,13.00
2019-05-02T09:15:54.437Z,12.95
2019-05-02T09:18:30.381Z,12.65
2019-05-02T09:20:57.494Z,11.60
2019-05-02T09:23:33.179Z,13.80
2019-05-02T09:25:59.939Z,13.55
2019-05-02T09:28:32.102Z,12.80
2019-05-02T09:31:06.482Z,12.65
2019-05-02T09:33:36.732Z,11.25
2019-05-02T09:36:06.536Z,12.58
2019-05-02T09:38:36.981Z,12.75
2019-05-02T09:41:16.971Z,13.22
2019-05-02T09:43:42.530Z,11.80
2019-05-02T09:46:16.487Z,12.18
2019-05-02T09:48:44.737Z,11.65
2019-05-02T09:51:17.444Z,13.65
2019-05-02T09:53:47.175Z,13.72
2019-05-02T09:56:17.595Z,13.08
2019-05-02T09:58:54.290Z,12.37
2019-05-02T10:01:23.173Z,12.28
2019-05-02T10:03:53.744Z,13.90
2019-05-02T10:06:24.105Z,14.35
2019-05-02T10:08:54.651Z,13.80
2019-05-02T10:11:27.281Z,12.25
2019-05-02T10:13:57.825Z,15.00
2019-05-02T10:16:28.201Z,12.65
2019-05-02T10:19:00.319Z,12.00
2019-05-02T10:21:31.878Z,11.08
2019-05-02T10:24:03.807Z,10.35
2019-05-02T10:26:35.717Z,10.95
2019-05-02T10:29:06.370Z,10.18
2019-05-02T10:31:38.063Z,10.35
2019-05-02T10:34:16.335Z,9.90
2019-05-02T10:36:43.342Z,8.80
2019-05-02T10:39:15.672Z,7.97
2019-05-02T10:41:45.111Z,8.15
2019-05-02T10:44:15.548Z,11.35
2019-05-02T10:46:47.622Z,11.33
2019-05-02T10:49:22.535Z,11.68
2019-05-02T10:51:55.016Z,12.03
2019-05-02T10:54:28.070Z,12.55
2019-05-02T10:56:57.458Z,12.20
2019-05-02T10:59:29.253Z,10.65
2019-05-02T11:02:19.442Z,11.93
2019-05-02T11:04:52.457Z,6.97
2019-05-02T11:07:26.295Z,6.33
2019-05-02T11:09:57.419Z,6.60
2019-05-02T11:12:41.895Z,9.00
2019-05-02T11:15:09.438Z,10.20
2019-05-02T11:17:42.319Z,9.08
2019-05-02T11:20:14.063Z,8.85
2019-05-02T11:22:44.430Z,7.93
2019-05-02T11:25:14.867Z,8.45
2019-05-02T11:27:45.244Z,10.55
2019-05-02T11:30:16.703Z,10.85
2019-05-02T11:35:17.350Z,13.22
2019-05-02T11:37:47.877Z,13.20
2019-05-02T11:40:18.313Z,13.08
2019-05-02T11:42:48.771Z,12.53
2019-05-02T11:45:19.287Z,11.80
2019-05-02T11:47:49.751Z,11.18
2019-05-02T11:50:22.032Z,11.50
2019-05-02T11:52:52.467Z,12.98
2019-05-02T11:55:24.700Z,14.95
2019-05-02T11:57:55.261Z,15.55
2019-05-02T12:00:25.702Z,14.10
2019-05-02T12:03:09.781Z,10.85
2019-05-02T12:05:42.036Z,13.72
2019-05-02T12:08:12.676Z,12.10
2019-05-02T12:10:43.073Z,11.60
2019-05-02T12:13:16.039Z,12.05
2019-05-02T12:15:45.498Z,12.35
2019-05-02T12:18:16.138Z,12.82
2019-05-02T12:20:46.520Z,14.18
2019-05-02T12:23:16.975Z,19.12
2019-05-02T12:25:47.340Z,13.88
2019-05-02T12:28:17.779Z,11.93
2019-05-02T12:30:48.140Z,11.05
2019-05-02T12:33:22.195Z,10.50
2019-05-02T12:35:52.591Z,10.40
2019-05-02T12:38:23.391Z,10.78
2019-05-02T12:40:53.852Z,10.10
2019-05-02T12:43:24.222Z,9.88
2019-05-02T12:45:54.593Z,9.78
2019-05-02T12:48:25.027Z,9.65
2019-05-02T12:50:55.417Z,9.55
2019-05-02T12:53:25.852Z,9.75
2019-05-02T12:55:56.217Z,9.68
2019-05-02T12:58:26.655Z,9.15
2019-05-02T13:00:57.034Z,10.08
2019-05-02T13:03:34.843Z,9.03
2019-05-02T13:06:05.657Z,8.78
2019-05-02T13:08:52.562Z,9.28
2019-05-02T13:11:27.345Z,8.10
2019-05-02T13:13:57.811Z,7.55
2019-05-02T13:16:28.243Z,8.38
2019-05-02T13:19:03.085Z,9.28
2019-05-02T13:21:50.355Z,8.28
2019-05-02T13:24:23.443Z,8.75
2019-05-02T13:26:59.367Z,8.45
2019-05-02T13:29:26.429Z,7.28
2019-05-02T13:32:08.779Z,8.40
2019-05-02T13:34:38.131Z,7.45
2019-05-02T13:37:12.195Z,7.97
2019-05-02T13:39:44.036Z,7.58
2019-05-02T13:42:14.665Z,7.45
2019-05-02T13:44:49.702Z,7.90
2019-05-02T13:47:21.906Z,7.90
2019-05-02T13:52:23.643Z,8.43
2019-05-02T13:54:54.763Z,7.65
2019-05-02T13:57:25.193Z,7.62
2019-05-02T13:59:55.647Z,7.08
2019-05-02T14:02:42.483Z,7.37
2019-05-02T14:05:15.032Z,7.25
2019-05-02T14:07:54.114Z,6.22
2019-05-02T14:10:26.082Z,6.53
2019-05-02T14:13:03.447Z,6.22
2019-05-02T14:15:36.313Z,5.60
2019-05-02T14:18:06.802Z,5.58
2019-05-02T14:20:38.330Z,3.70
2019-05-02T14:23:08.787Z,4.45
2019-05-02T14:25:39.224Z,3.70
2019-05-02T14:28:09.818Z,3.20
2019-05-02T14:30:45.540Z,2.98
2019-05-02T14:33:17.113Z,2.52
2019-05-02T14:35:47.939Z,2.80
2019-05-02T14:38:18.888Z,3.25
2019-05-02T14:40:52.048Z,2.80
2019-05-02T14:43:46.186Z,2.92
2019-05-02T14:46:12.917Z,3.58
2019-05-02T14:48:45.140Z,3.47
2019-05-02T14:53:46.843Z,3.10
2019-05-02T14:56:37.577Z,3.30
2019-05-02T14:59:09.127Z,3.00
2019-05-02T15:01:42.131Z,3.27
2019-05-02T15:04:13.015Z,3.15
2019-05-02T15:06:47.318Z,3.08
2019-05-02T15:09:21.127Z,3.10
2019-05-02T15:12:03.029Z,3.77
2019-05-02T15:14:34.524Z,3.70
2019-05-02T15:17:07.510Z,3.60
2019-05-02T15:19:43.594Z,3.37
2019-05-02T15:22:15.450Z,11.20
2019-05-02T15:24:45.901Z,8.78
2019-05-02T15:27:17.791Z,4.40
2019-05-02T15:29:48.566Z,3.52
2019-05-02T15:32:25.486Z,6.50
2019-05-02T15:35:02.999Z,8.40
2019-05-02T15:37:35.844Z,5.12
2019-05-02T15:42:47.541Z,5.90
2019-05-02T15:45:20.366Z,6.00
2019-05-02T15:47:52.630Z,28.83
2019-05-02T15:50:25.433Z,6.00
2019-05-02T15:53:01.739Z,5.28
2019-05-02T15:55:32.432Z,4.70
2019-05-02T15:58:02.399Z,4.72
2019-05-02T16:00:34.930Z,5.10
2019-05-02T16:03:12.957Z,4.70
2019-05-02T16:05:45.041Z,4.40
2019-05-02T16:08:15.447Z,4.58
2019-05-02T16:10:45.864Z,5.22
2019-05-02T16:13:17.242Z,4.75
2019-05-02T16:15:47.756Z,5.47
2019-05-02T16:18:18.188Z,4.47
2019-05-02T16:21:04.895Z,5.37
2019-05-02T16:23:32.725Z,4.53
2019-05-02T16:26:03.837Z,6.20
2019-05-02T16:28:32.324Z,5.47
2019-05-02T16:31:04.044Z,5.40
2019-05-02T16:33:35.327Z,5.92
2019-05-02T16:36:05.903Z,6.80
2019-05-02T16:38:37.216Z,11.18
2019-05-02T16:41:10.148Z,11.33
2019-05-02T16:46:14.084Z,14.87
2019-05-02T16:48:44.532Z,15.58
2019-05-02T16:51:30.053Z,26.00
2019-05-02T16:53:46.953Z,14.25
2019-05-02T16:56:17.507Z,13.88
2019-05-02T16:58:47.862Z,15.93
2019-05-02T17:01:26.558Z,18.17
2019-05-02T17:03:50.719Z,13.15
2019-05-02T17:06:25.849Z,9.78
2019-05-02T17:08:58.508Z,5.80
2019-05-02T17:11:32.395Z,10.08
2019-05-02T17:14:02.296Z,5.25
2019-05-02T17:16:33.174Z,5.03
2019-05-02T17:19:03.596Z,4.28
2019-05-02T17:21:52.486Z,4.17
2019-05-02T17:24:06.150Z,3.77
2019-05-02T17:26:36.625Z,4.05
2019-05-02T17:29:07.154Z,4.33
2019-05-02T17:31:37.565Z,4.17
2019-05-02T17:34:07.990Z,3.92
2019-05-02T17:36:38.542Z,4.60
2019-05-02T17:39:12.447Z,4.90
2019-05-02T17:41:45.676Z,5.37
2019-05-02T17:44:18.518Z,4.58
2019-05-02T17:46:50.865Z,5.28
2019-05-02T17:49:23.867Z,5.53
2019-05-02T17:52:11.236Z,5.05
2019-05-02T17:54:42.371Z,5.20
2019-05-02T17:57:12.922Z,5.30
2019-05-02T17:59:43.358Z,4.90
2019-05-02T18:02:15.954Z,5.03
2019-05-02T18:04:46.568Z,5.70
2019-05-02T18:07:18.182Z,5.40
2019-05-02T18:09:48.862Z,5.15
2019-05-02T18:12:19.279Z,5.90
2019-05-02T18:14:53.159Z,6.15
2019-05-02T18:17:21.993Z,6.12
2019-05-02T18:19:56.722Z,6.33
2019-05-02T18:22:26.387Z,6.20
2019-05-02T18:24:56.607Z,6.30
2019-05-02T18:27:27.050Z,5.83
2019-05-02T18:29:57.415Z,6.12
2019-05-02T18:32:27.979Z,6.40
2019-05-02T18:35:04.194Z,6.10
2019-05-02T18:37:32.587Z,6.17
2019-05-02T18:40:03.187Z,6.40
2019-05-02T18:42:33.678Z,6.22
2019-05-02T18:45:07.033Z,6.17
2019-05-02T18:47:37.458Z,7.00
2019-05-02T18:50:16.382Z,6.62
2019-05-02T18:52:48.110Z,6.72
2019-05-02T18:55:23.176Z,6.75
2019-05-02T18:57:52.333Z,6.25
2019-05-02T19:02:56.373Z,7.08
2019-05-02T19:05:26.588Z,7.05
2019-05-02T19:07:57.366Z,6.70
2019-05-02T19:10:27.730Z,6.85
2019-05-02T19:13:01.029Z,7.08
2019-05-02T19:15:34.043Z,6.10
2019-05-02T19:18:02.747Z,6.15
2019-05-02T19:20:39.266Z,6.05
2019-05-02T19:23:09.703Z,6.35
2019-05-02T19:25:40.063Z,5.62
2019-05-02T19:28:12.264Z,4.90
2019-05-02T19:30:43.289Z,5.17
2019-05-02T19:33:13.670Z,4.95
2019-05-02T19:35:46.908Z,4.60
2019-05-02T19:38:24.394Z,4.83
2019-05-02T19:40:49.426Z,4.08
2019-05-02T19:43:19.932Z,3.37
2019-05-02T19:45:53.943Z,3.50
2019-05-02T19:48:22.793Z,3.65
2019-05-02T19:50:53.428Z,3.75
2019-05-02T19:53:23.993Z,3.90
2019-05-02T19:55:57.182Z,3.72
2019-05-02T19:58:26.521Z,4.25
2019-05-02T20:00:57.038Z,4.83
2019-05-02T20:03:27.465Z,3.95
2019-05-02T20:06:02.435Z,4.70
2019-05-02T20:08:30.071Z,4.10
2019-05-02T20:11:02.204Z,4.45
2019-05-02T20:13:32.830Z,4.60
2019-05-02T20:16:11.951Z,4.42
2019-05-02T20:18:46.990Z,4.37
2019-05-02T20:21:27.424Z,4.22
2019-05-02T20:23:54.192Z,3.92
2019-05-02T20:26:24.704Z,4.15
2019-05-02T20:28:55.138Z,4.30
2019-05-02T20:31:25.592Z,4.58
2019-05-02T20:33:57.547Z,4.75
2019-05-02T20:36:27.958Z,4.55
2019-05-02T20:38:58.401Z,4.90
2019-05-02T20:41:28.945Z,4.22
2019-05-02T20:43:59.358Z,3.80
2019-05-02T20:46:29.801Z,3.90
2019-05-02T20:49:01.938Z,3.85
2019-05-02T20:51:32.239Z,3.80
2019-05-02T20:54:03.818Z,3.83
2019-05-02T20:56:34.172Z,3.92
2019-05-02T20:59:05.913Z,3.20
2019-05-02T21:01:36.285Z,3.27
2019-05-02T21:04:06.830Z,3.12
2019-05-02T21:06:43.364Z,3.75
2019-05-02T21:09:15.582Z,2.80
2019-05-02T21:11:47.526Z,3.47
2019-05-02T21:14:17.949Z,3.35
2019-05-02T21:16:48.315Z,2.90
2019-05-02T21:19:18.855Z,3.02
2019-05-02T21:21:52.623Z,3.37
2019-05-02T21:24:23.231Z,2.77
2019-05-02T21:26:53.591Z,3.22
2019-05-02T21:29:24.006Z,3.30
2019-05-02T21:31:54.482Z,3.15
2019-05-02T21:34:24.899Z,3.00
2019-05-02T21:36:55.257Z,3.00
2019-05-02T21:39:25.671Z,3.85
2019-05-02T21:41:56.038Z,3.00
2019-05-02T21:44:26.461Z,3.40
2019-05-02T21:46:56.819Z,3.27
2019-05-02T21:49:45.392Z,2.98
2019-05-02T21:52:22.572Z,3.20
2019-05-02T21:54:57.310Z,2.92
2019-05-02T21:57:27.671Z,3.33
2019-05-02T21:59:58.121Z,3.83
2019-05-02T22:02:28.479Z,3.10
2019-05-02T22:04:58.894Z,3.30
2019-05-02T22:07:29.254Z,3.30
2019-05-02T22:09:59.682Z,3.20
2019-05-02T22:12:31.720Z,3.27
2019-05-02T22:15:02.338Z,3.27
2019-05-02T22:17:34.513Z,3.58
2019-05-02T22:20:06.218Z,3.20
2019-05-02T22:22:36.654Z,3.98
2019-05-02T22:25:08.033Z,3.85
2019-05-02T22:27:38.442Z,3.47
2019-05-02T22:30:09.014Z,3.55
2019-05-02T22:32:39.453Z,3.72
2019-05-02T22:35:10.016Z,3.33
2019-05-02T22:37:41.994Z,3.72
2019-05-02T22:40:14.027Z,3.67
2019-05-02T22:42:44.464Z,3.83
2019-05-02T22:45:14.942Z,3.72
2019-05-02T22:47:45.291Z,3.95
2019-05-02T22:50:15.721Z,4.17
2019-05-02T22:52:46.088Z,3.70
2019-05-02T22:55:16.443Z,3.60
2019-05-02T22:57:46.859Z,4.85
2019-05-02T23:00:17.515Z,3.95
2019-05-02T23:02:47.981Z,3.42
2019-05-02T23:05:18.562Z,3.70
2019-05-02T23:07:49.083Z,3.27
2019-05-02T23:10:19.449Z,3.47
2019-05-02T23:12:51.676Z,3.62
2019-05-02T23:15:21.855Z,3.50
2019-05-02T23:17:52.346Z,3.80
2019-05-02T23:20:24.372Z,3.50
2019-05-02T23:22:54.978Z,4.15
2019-05-02T23:25:45.060Z,3.62
2019-05-02T23:28:24.322Z,3.72
2019-05-02T23:30:54.795Z,3.75
2019-05-02T23:33:26.805Z,3.83
2019-05-02T23:35:57.179Z,4.17
2019-05-02T23:38:27.609Z,3.65
2019-05-02T23:40:57.982Z,4.20
2019-05-02T23:43:28.398Z,4.22
2019-05-02T23:45:58.769Z,3.77
2019-05-02T23:48:29.175Z,4.37
2019-05-02T23:50:59.630Z,4.37
2019-05-02T23:53:31.569Z,4.37
2019-05-02T23:56:02.052Z,4.12
2019-05-02T23:58:32.411Z,4.35
